Time;durP1;ratioP1;P1;durP2;ratioP2;P2;SDS_P1;SDS_P2;PMS_P1;PMS_P2;Temp;Humidity;BMP_temperature;BMP_pressure;BME280_temperature;BME280_humidity;BME280_pressure;Samples;Min_cycle;Max_cycle;Signal;HPM_P1;HPM_P2
2024/01/17 00:01:01;;;;;;;1.27;1.27;;;;;;;;;;6136839;29;20326;-69
2024/01/17 00:04:06;;;;;;;2.00;1.40;;;;;;;;;;6109028;29;20574;-69
2024/01/17 00:07:10;;;;;;;1.30;1.20;;;;;;;;;;6135519;29;20436;-69
2024/01/17 00:10:14;;;;;;;1.20;1.20;;;;;;;;;;6125270;29;20373;-68
2024/01/17 00:13:18;;;;;;;1.20;1.20;;;;;;;;;;6158516;28;20539;-69
2024/01/17 00:16:22;;;;;;;1.20;1.20;;;;;;;;;;6160572;28;20305;-68
2024/01/17 00:19:29;;;;;;;1.27;1.27;;;;;;;;;;6156669;28;20305;-70
2024/01/17 00:22:34;;;;;;;1.10;1.10;;;;;;;;;;6130017;28;20305;-69
2024/01/17 00:25:38;;;;;;;1.40;1.37;;;;;;;;;;6151363;28;20301;-69
2024/01/17 00:28:41;;;;;;;1.27;1.27;;;;;;;;;;6159783;28;20306;-69
2024/01/17 00:31:45;;;;;;;1.30;1.30;;;;;;;;;;6138839;28;20302;-68
2024/01/17 00:34:51;;;;;;;1.60;1.50;;;;;;;;;;6135693;29;20298;-69
2024/01/17 00:37:55;;;;;;;1.10;1.10;;;;;;;;;;6135223;29;20294;-68
2024/01/17 00:40:59;;;;;;;1.30;1.30;;;;;;;;;;6136310;29;20306;-68
2024/01/17 00:44:04;;;;;;;1.33;1.27;;;;;;;;;;6135556;29;20342;-68
2024/01/17 00:47:09;;;;;;;1.10;1.10;;;;;;;;;;6136519;29;20298;-70
2024/01/17 00:50:15;;;;;;;1.27;1.27;;;;;;;;;;6133829;29;20302;-68
2024/01/17 00:53:20;;;;;;;1.10;1.10;;;;;;;;;;6133725;29;20382;-70
2024/01/17 00:56:23;;;;;;;1.07;1.07;;;;;;;;;;6135272;29;20310;-69
2024/01/17 00:59:28;;;;;;;1.10;1.10;;;;;;;;;;6125863;29;20305;-69
2024/01/17 01:02:32;;;;;;;1.30;1.30;;;;;;;;;;6135873;29;20310;-70
2024/01/17 01:05:37;;;;;;;1.10;1.10;;;;;;;;;;6135939;29;20306;-69
2024/01/17 01:08:41;;;;;;;1.20;1.20;;;;;;;;;;6133764;29;20584;-69
2024/01/17 01:11:45;;;;;;;2.20;1.50;;;;;;;;;;6154600;28;20299;-69
2024/01/17 01:14:49;;;;;;;1.30;1.30;;;;;;;;;;6156949;28;20289;-69
2024/01/17 01:17:53;;;;;;;1.20;1.20;;;;;;;;;;6157828;28;20301;-69
2024/01/17 01:20:58;;;;;;;1.20;1.20;;;;;;;;;;6159273;28;20581;-69
2024/01/17 01:24:03;;;;;;;1.17;1.17;;;;;;;;;;6160441;28;20305;-70
2024/01/17 01:27:07;;;;;;;1.40;1.40;;;;;;;;;;6152702;28;20307;-70
2024/01/17 01:30:12;;;;;;;1.70;1.27;;;;;;;;;;6124695;28;20293;-69
2024/01/17 01:33:16;;;;;;;1.30;1.30;;;;;;;;;;6161839;28;20307;-69
2024/01/17 01:36:22;;;;;;;1.00;1.00;;;;;;;;;;6162371;28;20563;-70
2024/01/17 01:39:25;;;;;;;2.60;1.10;;;;;;;;;;6161995;28;20304;-69
2024/01/17 01:42:30;;;;;;;1.30;1.30;;;;;;;;;;6125585;28;20297;-69
2024/01/17 01:45:34;;;;;;;1.20;1.20;;;;;;;;;;6162343;28;20294;-71
2024/01/17 01:48:38;;;;;;;1.30;1.30;;;;;;;;;;6160849;28;20297;-69
2024/01/17 01:51:45;;;;;;;1.50;1.40;;;;;;;;;;6162086;28;20294;-69
2024/01/17 01:54:49;;;;;;;1.00;1.00;;;;;;;;;;6144309;29;20577;-69
2024/01/17 01:57:54;;;;;;;1.30;1.30;;;;;;;;;;6161467;28;20583;-69
2024/01/17 02:00:58;;;;;;;1.20;1.20;;;;;;;;;;6135808;28;20291;-69
2024/01/17 02:04:03;;;;;;;1.80;1.70;;;;;;;;;;6143789;28;20369;-70
2024/01/17 02:07:09;;;;;;;1.20;1.20;;;;;;;;;;6161666;28;20299;-69
2024/01/17 02:10:13;;;;;;;1.33;1.30;;;;;;;;;;6154554;28;20308;-69
2024/01/17 02:13:17;;;;;;;1.20;1.20;;;;;;;;;;6135443;29;20580;-70
2024/01/17 02:16:21;;;;;;;1.27;1.27;;;;;;;;;;6137977;29;20299;-70
2024/01/17 02:19:26;;;;;;;1.20;1.20;;;;;;;;;;6137555;29;20303;-69
2024/01/17 02:22:31;;;;;;;1.10;1.10;;;;;;;;;;6137529;29;20300;-69
2024/01/17 02:25:37;;;;;;;2.73;1.20;;;;;;;;;;6108929;28;1416519;-69
2024/01/17 02:28:41;;;;;;;1.20;1.10;;;;;;;;;;6161672;28;20291;-69
2024/01/17 02:31:45;;;;;;;1.17;1.17;;;;;;;;;;6163377;28;20314;-70
2024/01/17 02:34:49;;;;;;;1.30;1.30;;;;;;;;;;6162725;28;20288;-69
2024/01/17 02:37:53;;;;;;;1.10;1.10;;;;;;;;;;6162525;28;20312;-69
2024/01/17 02:40:58;;;;;;;1.50;1.40;;;;;;;;;;6162290;28;20589;-69
2024/01/17 02:44:03;;;;;;;1.10;1.10;;;;;;;;;;6160335;28;20296;-69
2024/01/17 02:47:07;;;;;;;1.20;1.20;;;;;;;;;;6162714;28;20321;-70
2024/01/17 02:50:14;;;;;;;1.10;1.10;;;;;;;;;;6161476;28;20298;-70
2024/01/17 02:53:18;;;;;;;3.37;1.40;;;;;;;;;;6152354;28;20431;-69
2024/01/17 02:56:23;;;;;;;4.93;1.30;;;;;;;;;;6162085;28;20297;-70
2024/01/17 02:59:27;;;;;;;1.07;1.07;;;;;;;;;;6159543;28;20304;-70
2024/01/17 03:02:31;;;;;;;4.43;1.43;;;;;;;;;;6162211;28;20309;-69
2024/01/17 03:05:37;;;;;;;1.00;1.00;;;;;;;;;;6159935;28;20300;-70
2024/01/17 03:08:41;;;;;;;1.73;1.13;;;;;;;;;;6161403;28;22854;-70
2024/01/17 03:11:46;;;;;;;1.50;1.30;;;;;;;;;;6161706;28;20289;-70
2024/01/17 03:14:50;;;;;;;1.37;1.37;;;;;;;;;;6161442;28;20286;-70
2024/01/17 03:17:55;;;;;;;1.33;1.17;;;;;;;;;;6160078;28;20293;-69
2024/01/17 03:21:04;;;;;;;1.40;1.30;;;;;;;;;;6161880;28;20302;-69
2024/01/17 03:24:08;;;;;;;1.30;1.30;;;;;;;;;;6160598;28;20299;-70
2024/01/17 03:27:14;;;;;;;1.20;1.20;;;;;;;;;;6167217;28;20470;-70
2024/01/17 03:30:18;;;;;;;1.10;1.10;;;;;;;;;;6160327;28;20301;-70
2024/01/17 03:33:22;;;;;;;1.70;1.03;;;;;;;;;;6158635;28;20603;-70
2024/01/17 03:36:26;;;;;;;1.10;1.00;;;;;;;;;;6169151;28;20297;-70
2024/01/17 03:39:33;;;;;;;0.97;0.97;;;;;;;;;;6160556;28;20302;-70
2024/01/17 03:42:38;;;;;;;2.03;1.17;;;;;;;;;;6161283;28;20294;-70
2024/01/17 03:45:44;;;;;;;1.23;1.23;;;;;;;;;;6161470;28;20338;-69
2024/01/17 03:48:48;;;;;;;1.10;1.10;;;;;;;;;;6159944;28;20471;-69
2024/01/17 03:51:54;;;;;;;1.40;1.40;;;;;;;;;;6161681;28;20434;-69
2024/01/17 03:54:59;;;;;;;2.07;1.30;;;;;;;;;;6160431;28;20295;-70
2024/01/17 03:58:04;;;;;;;1.00;1.00;;;;;;;;;;6158144;28;20299;-69
2024/01/17 04:01:09;;;;;;;1.13;1.13;;;;;;;;;;6160757;28;20308;-70
2024/01/17 04:04:13;;;;;;;2.93;1.20;;;;;;;;;;6158387;28;20302;-71
2024/01/17 04:07:20;;;;;;;1.37;1.10;;;;;;;;;;6161144;28;20300;-69
2024/01/17 04:10:25;;;;;;;1.37;1.37;;;;;;;;;;6160690;28;20299;-70
2024/01/17 04:13:30;;;;;;;1.03;1.03;;;;;;;;;;6151981;28;20307;-70
2024/01/17 04:16:36;;;;;;;1.20;1.20;;;;;;;;;;6159623;28;20302;-69
2024/01/17 04:19:40;;;;;;;1.23;1.23;;;;;;;;;;6157343;28;20298;-69
2024/01/17 04:22:43;;;;;;;1.33;1.23;;;;;;;;;;6160784;28;20319;-68
2024/01/17 04:25:47;;;;;;;1.10;1.10;;;;;;;;;;6149026;28;20303;-69
2024/01/17 04:28:54;;;;;;;2.43;1.10;;;;;;;;;;6157264;28;20301;-69
2024/01/17 04:31:58;;;;;;;1.53;1.10;;;;;;;;;;6168384;28;20293;-69
2024/01/17 04:35:02;;;;;;;1.77;1.37;;;;;;;;;;6160075;28;20602;-69
2024/01/17 04:38:07;;;;;;;2.00;1.30;;;;;;;;;;6160177;28;20602;-70
2024/01/17 04:41:12;;;;;;;1.10;1.10;;;;;;;;;;6159557;28;20608;-70
2024/01/17 04:44:17;;;;;;;1.30;1.20;;;;;;;;;;6158849;28;20305;-69
2024/01/17 04:47:21;;;;;;;1.63;1.40;;;;;;;;;;6158786;28;20313;-71
2024/01/17 04:50:25;;;;;;;1.53;1.20;;;;;;;;;;6159490;28;20300;-69
2024/01/17 04:53:29;;;;;;;2.53;1.43;;;;;;;;;;6159339;28;20326;-70
2024/01/17 04:56:33;;;;;;;2.87;1.53;;;;;;;;;;6159870;28;20304;-69
2024/01/17 04:59:38;;;;;;;1.10;1.10;;;;;;;;;;6161717;28;20585;-70
2024/01/17 05:02:42;;;;;;;2.20;1.67;;;;;;;;;;6165282;28;20363;-70
2024/01/17 05:05:46;;;;;;;2.47;2.20;;;;;;;;;;6163048;28;20293;-70
2024/01/17 05:08:51;;;;;;;2.40;1.40;;;;;;;;;;6164195;28;20309;-70
2024/01/17 05:11:57;;;;;;;3.40;1.73;;;;;;;;;;6165291;28;20293;-70
2024/01/17 05:15:03;;;;;;;1.40;1.40;;;;;;;;;;6163140;28;20313;-69
2024/01/17 05:18:08;;;;;;;1.57;1.37;;;;;;;;;;6165657;28;20301;-70
2024/01/17 05:21:15;;;;;;;2.10;1.53;;;;;;;;;;6159601;28;20297;-70
2024/01/17 05:24:19;;;;;;;3.53;1.70;;;;;;;;;;6159877;28;20309;-69
2024/01/17 05:27:23;;;;;;;2.20;1.90;;;;;;;;;;6164535;28;20310;-69
2024/01/17 05:30:28;;;;;;;1.60;1.60;;;;;;;;;;6163536;28;20298;-70
2024/01/17 05:33:32;;;;;;;1.53;1.53;;;;;;;;;;6163805;28;20299;-69
2024/01/17 05:36:37;;;;;;;1.50;1.50;;;;;;;;;;6164696;28;20301;-70
2024/01/17 05:39:41;;;;;;;2.50;1.50;;;;;;;;;;6169079;28;20293;-70
2024/01/17 05:42:46;;;;;;;1.60;1.60;;;;;;;;;;6164787;28;20298;-70
2024/01/17 05:45:51;;;;;;;2.83;1.43;;;;;;;;;;6164235;28;20298;-70
2024/01/17 05:48:55;;;;;;;2.10;1.80;;;;;;;;;;6163020;28;20340;-70
2024/01/17 05:51:59;;;;;;;3.57;1.80;;;;;;;;;;6163221;28;20312;-70
2024/01/17 05:55:05;;;;;;;3.27;1.57;;;;;;;;;;6163272;28;20298;-70
2024/01/17 05:58:09;;;;;;;2.83;1.60;;;;;;;;;;6163977;28;20298;-69
2024/01/17 06:01:15;;;;;;;5.67;1.67;;;;;;;;;;6160874;28;20404;-69
2024/01/17 06:04:19;;;;;;;1.77;1.60;;;;;;;;;;6163416;28;20302;-69
2024/01/17 06:07:23;;;;;;;1.73;1.73;;;;;;;;;;6164154;28;20306;-69
2024/01/17 06:10:28;;;;;;;1.73;1.63;;;;;;;;;;6162684;28;20294;-69
2024/01/17 06:13:32;;;;;;;1.80;1.80;;;;;;;;;;6163228;28;20292;-69
2024/01/17 06:16:37;;;;;;;2.60;1.70;;;;;;;;;;6162503;28;20298;-69
2024/01/17 06:19:41;;;;;;;2.40;2.20;;;;;;;;;;6161667;28;20304;-69
2024/01/17 06:22:45;;;;;;;1.70;1.60;;;;;;;;;;6160015;28;20286;-69
2024/01/17 06:25:49;;;;;;;3.60;2.20;;;;;;;;;;6176765;28;20594;-69
2024/01/17 06:28:53;;;;;;;2.77;2.10;;;;;;;;;;6162325;28;20317;-68
2024/01/17 06:31:59;;;;;;;2.50;1.90;;;;;;;;;;6163499;28;20289;-71
2024/01/17 06:35:03;;;;;;;2.33;2.20;;;;;;;;;;6162654;28;20487;-69
2024/01/17 06:38:07;;;;;;;2.97;2.10;;;;;;;;;;6163209;28;20306;-68
2024/01/17 06:41:11;;;;;;;3.83;2.03;;;;;;;;;;6162627;28;20304;-72
2024/01/17 06:44:15;;;;;;;2.90;2.00;;;;;;;;;;6161898;28;20574;-69
2024/01/17 06:47:20;;;;;;;3.00;2.17;;;;;;;;;;6162805;28;20306;-69
2024/01/17 06:50:24;;;;;;;5.50;2.47;;;;;;;;;;6159533;28;20314;-70
2024/01/17 06:53:28;;;;;;;5.70;2.27;;;;;;;;;;6162411;28;20375;-69
2024/01/17 06:56:34;;;;;;;2.40;2.30;;;;;;;;;;6162498;28;20298;-69
2024/01/17 06:59:38;;;;;;;2.70;2.47;;;;;;;;;;6161760;28;20470;-72
2024/01/17 07:02:44;;;;;;;2.27;2.10;;;;;;;;;;6162149;28;20340;-70
2024/01/17 07:05:48;;;;;;;3.63;2.47;;;;;;;;;;6161731;28;20294;-69
2024/01/17 07:08:52;;;;;;;5.67;2.27;;;;;;;;;;6161990;28;20296;-69
2024/01/17 07:11:56;;;;;;;2.57;2.20;;;;;;;;;;6160550;28;20539;-69
2024/01/17 07:15:06;;;;;;;5.73;2.53;;;;;;;;;;6176236;28;20483;-70
2024/01/17 07:18:11;;;;;;;2.43;2.23;;;;;;;;;;6160858;28;20298;-71
2024/01/17 07:21:16;;;;;;;2.47;2.27;;;;;;;;;;6159128;28;20467;-70
2024/01/17 07:24:20;;;;;;;2.80;2.50;;;;;;;;;;6161527;28;20305;-68
2024/01/17 07:27:25;;;;;;;3.00;2.50;;;;;;;;;;6162147;28;20563;-69
2024/01/17 07:30:28;;;;;;;2.60;2.40;;;;;;;;;;6161107;28;20308;-69
2024/01/17 07:33:34;;;;;;;2.93;2.73;;;;;;;;;;6140471;28;20299;-68
2024/01/17 07:36:38;;;;;;;2.50;2.30;;;;;;;;;;6161732;28;20324;-69
2024/01/17 07:39:43;;;;;;;2.50;2.30;;;;;;;;;;6160715;28;20299;-69
2024/01/17 07:42:47;;;;;;;2.50;2.40;;;;;;;;;;6160137;28;20290;-69
2024/01/17 07:45:52;;;;;;;4.97;2.50;;;;;;;;;;6160262;28;20298;-69
2024/01/17 07:48:58;;;;;;;2.87;2.47;;;;;;;;;;6160989;28;20310;-69
2024/01/17 07:52:02;;;;;;;2.67;2.47;;;;;;;;;;6161257;28;20300;-69
2024/01/17 07:55:07;;;;;;;4.07;2.50;;;;;;;;;;6160960;28;20481;-69
2024/01/17 07:58:12;;;;;;;3.77;2.80;;;;;;;;;;6159993;28;20298;-69
2024/01/17 08:01:16;;;;;;;2.93;2.83;;;;;;;;;;6160959;28;20309;-69
2024/01/17 08:04:22;;;;;;;6.10;2.63;;;;;;;;;;6149419;28;20570;-69
2024/01/17 08:07:27;;;;;;;2.80;2.30;;;;;;;;;;6159618;28;20488;-69
2024/01/17 08:10:30;;;;;;;4.80;2.80;;;;;;;;;;6160693;28;20368;-69
2024/01/17 08:13:34;;;;;;;3.03;2.80;;;;;;;;;;6158685;28;20570;-69
2024/01/17 08:16:39;;;;;;;2.97;2.70;;;;;;;;;;6160976;28;20314;-68
2024/01/17 08:19:45;;;;;;;3.73;2.60;;;;;;;;;;6160712;28;20300;-70
2024/01/17 08:22:49;;;;;;;3.50;2.53;;;;;;;;;;6154970;28;20290;-69
2024/01/17 08:25:53;;;;;;;2.40;2.30;;;;;;;;;;6160455;28;20292;-69
2024/01/17 08:28:57;;;;;;;7.10;2.47;;;;;;;;;;6160329;28;20298;-69
2024/01/17 08:32:01;;;;;;;2.73;2.40;;;;;;;;;;6160649;28;20302;-69
2024/01/17 08:35:08;;;;;;;3.67;2.37;;;;;;;;;;6160224;28;20306;-69
2024/01/17 08:38:11;;;;;;;3.37;2.70;;;;;;;;;;6160889;28;20300;-70
2024/01/17 08:41:19;;;;;;;7.03;3.10;;;;;;;;;;6157406;28;20294;-69
2024/01/17 08:44:24;;;;;;;3.47;3.00;;;;;;;;;;6159298;28;20289;-69
2024/01/17 08:47:28;;;;;;;3.57;3.27;;;;;;;;;;6158408;28;20301;-68
2024/01/17 08:50:34;;;;;;;3.50;2.83;;;;;;;;;;6160490;28;20306;-69
2024/01/17 08:53:38;;;;;;;4.60;3.07;;;;;;;;;;6160024;28;20295;-69
2024/01/17 08:56:42;;;;;;;3.17;2.90;;;;;;;;;;6160465;28;20478;-69
2024/01/17 08:59:46;;;;;;;4.50;3.33;;;;;;;;;;6159941;28;20324;-69
2024/01/17 09:02:50;;;;;;;4.63;3.23;;;;;;;;;;6160312;28;20294;-69
2024/01/17 09:05:55;;;;;;;3.50;2.93;;;;;;;;;;6160026;28;20287;-68
2024/01/17 09:08:59;;;;;;;3.80;3.50;;;;;;;;;;6159961;28;20317;-68
2024/01/17 09:12:03;;;;;;;3.40;3.20;;;;;;;;;;6160338;28;20301;-70
2024/01/17 09:15:07;;;;;;;3.77;3.03;;;;;;;;;;6159771;28;20491;-69
2024/01/17 09:18:12;;;;;;;6.97;3.77;;;;;;;;;;6160094;28;20304;-69
2024/01/17 09:21:18;;;;;;;6.37;3.63;;;;;;;;;;6160043;28;20306;-69
2024/01/17 09:24:22;;;;;;;3.93;3.70;;;;;;;;;;6159333;28;20301;-69
2024/01/17 09:27:26;;;;;;;3.93;3.73;;;;;;;;;;6160121;28;20589;-69
2024/01/17 09:30:30;;;;;;;4.50;3.50;;;;;;;;;;6159490;28;20324;-69
2024/01/17 09:33:35;;;;;;;8.70;3.90;;;;;;;;;;6157726;28;20293;-69
2024/01/17 09:36:40;;;;;;;3.83;3.40;;;;;;;;;;6159664;28;20302;-69
2024/01/17 09:39:45;;;;;;;3.80;3.47;;;;;;;;;;6159570;28;20293;-69
2024/01/17 09:42:49;;;;;;;5.67;4.03;;;;;;;;;;6160076;28;20373;-69
2024/01/17 09:46:02;;;;;;;4.00;3.67;;;;;;;;;;6162804;28;20384;-69
2024/01/17 09:49:06;;;;;;;3.57;3.33;;;;;;;;;;6163947;28;20298;-68
2024/01/17 09:52:13;;;;;;;5.77;3.60;;;;;;;;;;6148188;28;20309;-70
2024/01/17 09:55:20;;;;;;;9.63;4.63;;;;;;;;;;6137589;28;20294;-69
2024/01/17 09:58:24;;;;;;;5.03;3.97;;;;;;;;;;6144645;28;20302;-69
2024/01/17 10:01:30;;;;;;;3.87;3.57;;;;;;;;;;6140529;28;20303;-68
2024/01/17 10:04:35;;;;;;;4.97;3.63;;;;;;;;;;6139102;28;20303;-67
2024/01/17 10:07:40;;;;;;;3.67;3.30;;;;;;;;;;6140310;28;20298;-67
2024/01/17 10:10:44;;;;;;;3.00;2.80;;;;;;;;;;6142229;28;20294;-70
2024/01/17 10:13:48;;;;;;;2.83;2.63;;;;;;;;;;6164029;28;20284;-70
2024/01/17 10:16:52;;;;;;;3.07;2.87;;;;;;;;;;6163857;28;20311;-67
2024/01/17 10:19:57;;;;;;;3.67;3.17;;;;;;;;;;6163158;28;20391;-69
2024/01/17 10:23:03;;;;;;;3.93;3.60;;;;;;;;;;6163573;28;20320;-70
2024/01/17 10:26:09;;;;;;;3.87;3.40;;;;;;;;;;6160202;28;20301;-68
2024/01/17 10:29:13;;;;;;;4.53;3.40;;;;;;;;;;6163259;28;20294;-70
2024/01/17 10:32:18;;;;;;;3.40;3.10;;;;;;;;;;6162264;28;20317;-70
2024/01/17 10:35:23;;;;;;;6.93;3.30;;;;;;;;;;6162559;28;20303;-70
2024/01/17 10:38:32;;;;;;;9.20;3.57;;;;;;;;;;6162714;28;20313;-70
2024/01/17 10:41:49;;;;;;;4.40;4.00;;;;;;;;;;6163175;28;20305;-69
2024/01/17 10:44:57;;;;;;;6.90;3.70;;;;;;;;;;6162697;28;20325;-69
2024/01/17 10:48:02;;;;;;;4.87;3.80;;;;;;;;;;6163468;28;20313;-69
2024/01/17 10:51:08;;;;;;;5.03;4.30;;;;;;;;;;6154104;28;20298;-69
2024/01/17 10:54:18;;;;;;;7.73;4.43;;;;;;;;;;6160412;28;20374;-71
2024/01/17 10:57:22;;;;;;;5.10;4.60;;;;;;;;;;6161075;28;20309;-71
2024/01/17 11:00:31;;;;;;;7.20;4.00;;;;;;;;;;6162389;28;20303;-70
2024/01/17 11:03:37;;;;;;;4.47;4.07;;;;;;;;;;6162491;28;20401;-70
2024/01/17 11:06:42;;;;;;;6.23;3.73;;;;;;;;;;6163047;28;20334;-69
2024/01/17 11:09:48;;;;;;;5.37;4.20;;;;;;;;;;6162653;28;20290;-69
2024/01/17 11:12:54;;;;;;;4.80;4.20;;;;;;;;;;6161299;28;20301;-70
2024/01/17 11:16:01;;;;;;;4.10;3.70;;;;;;;;;;6162502;28;20297;-69
2024/01/17 11:19:09;;;;;;;3.40;3.20;;;;;;;;;;6155389;28;20293;-68
2024/01/17 11:22:16;;;;;;;7.00;3.73;;;;;;;;;;6148468;28;20471;-71
2024/01/17 11:25:31;;;;;;;7.30;4.00;;;;;;;;;;6167266;28;20309;-68
2024/01/17 11:28:40;;;;;;;5.33;3.40;;;;;;;;;;6167394;28;20313;-70
2024/01/17 11:31:50;;;;;;;5.00;3.40;;;;;;;;;;6160918;28;20584;-69
2024/01/17 11:34:57;;;;;;;3.47;3.27;;;;;;;;;;6152183;28;20292;-68
2024/01/17 11:38:02;;;;;;;7.60;3.87;;;;;;;;;;6161973;28;20301;-68
2024/01/17 11:41:09;;;;;;;4.77;3.50;;;;;;;;;;6161338;28;20298;-67
2024/01/17 11:44:14;;;;;;;7.13;3.57;;;;;;;;;;6161049;28;20591;-67
2024/01/17 11:47:21;;;;;;;6.07;3.63;;;;;;;;;;6161223;28;20301;-69
2024/01/17 11:50:25;;;;;;;9.03;3.57;;;;;;;;;;6160827;28;20298;-69
2024/01/17 11:53:29;;;;;;;6.07;3.50;;;;;;;;;;6160558;28;20453;-68
2024/01/17 11:56:36;;;;;;;7.43;3.43;;;;;;;;;;6161294;28;20301;-68
2024/01/17 12:00:32;;;;;;;6.20;4.00;;;;;;;;;;6161928;28;20298;-68
2024/01/17 12:04:29;;;;;;;7.80;4.00;;;;;;;;;;6158327;28;20310;-68
2024/01/17 12:07:38;;;;;;;4.37;3.93;;;;;;;;;;6158988;28;20298;-68
2024/01/17 12:10:42;;;;;;;13.57;4.23;;;;;;;;;;6160671;28;20455;-68
2024/01/17 12:13:52;;;;;;;9.23;4.40;;;;;;;;;;6160742;28;20298;-68
2024/01/17 12:16:56;;;;;;;11.07;4.70;;;;;;;;;;6157864;28;20297;-68
2024/01/17 12:20:00;;;;;;;8.37;4.60;;;;;;;;;;6172086;28;20298;-68
2024/01/17 12:23:08;;;;;;;11.03;5.00;;;;;;;;;;6161613;28;20317;-69
2024/01/17 12:26:12;;;;;;;9.77;4.87;;;;;;;;;;6160209;28;20383;-71
2024/01/17 12:29:17;;;;;;;9.37;4.93;;;;;;;;;;6149375;28;20313;-68
2024/01/17 12:32:22;;;;;;;8.33;4.70;;;;;;;;;;6160535;28;20361;-70
2024/01/17 12:35:26;;;;;;;8.53;3.90;;;;;;;;;;6160673;28;20303;-69
2024/01/17 12:38:30;;;;;;;9.73;4.60;;;;;;;;;;6159421;28;20298;-69
2024/01/17 12:41:36;;;;;;;6.20;3.30;;;;;;;;;;6160934;28;20308;-69
2024/01/17 12:44:42;;;;;;;3.77;2.70;;;;;;;;;;6160617;28;20608;-67
2024/01/17 12:47:46;;;;;;;3.60;2.63;;;;;;;;;;6158686;28;20290;-68
2024/01/17 12:50:54;;;;;;;4.20;3.00;;;;;;;;;;6159494;28;20594;-69
2024/01/17 12:53:59;;;;;;;5.30;2.83;;;;;;;;;;6160603;28;20590;-69
2024/01/17 12:57:03;;;;;;;3.13;2.83;;;;;;;;;;6160919;28;20314;-69
2024/01/17 13:00:13;;;;;;;4.67;3.20;;;;;;;;;;6159414;28;20297;-69
2024/01/17 13:03:18;;;;;;;6.93;2.70;;;;;;;;;;6150858;28;20311;-69
2024/01/17 13:06:22;;;;;;;4.57;2.87;;;;;;;;;;6160657;28;20484;-69
2024/01/17 13:09:31;;;;;;;4.37;3.10;;;;;;;;;;6160413;28;20309;-69
2024/01/17 13:12:36;;;;;;;7.70;2.60;;;;;;;;;;6159900;28;20290;-68
2024/01/17 13:15:41;;;;;;;2.70;2.50;;;;;;;;;;6160489;28;20312;-69
2024/01/17 13:18:57;;;;;;;3.10;2.37;;;;;;;;;;6160176;28;20296;-69
2024/01/17 13:22:01;;;;;;;4.00;2.40;;;;;;;;;;6162279;28;20359;-70
2024/01/17 13:25:06;;;;;;;3.73;2.77;;;;;;;;;;6164548;28;20302;-68
2024/01/17 13:28:11;;;;;;;2.10;2.03;;;;;;;;;;6163229;28;20294;-68
2024/01/17 13:31:17;;;;;;;5.23;2.40;;;;;;;;;;6164315;28;20299;-68
2024/01/17 13:34:21;;;;;;;3.40;2.97;;;;;;;;;;6164487;28;20325;-69
2024/01/17 13:37:26;;;;;;;2.80;2.60;;;;;;;;;;6162667;28;20303;-68
2024/01/17 13:40:31;;;;;;;2.73;2.30;;;;;;;;;;6164260;28;20591;-69
2024/01/17 13:43:34;;;;;;;3.70;2.33;;;;;;;;;;6161093;28;20298;-68
2024/01/17 13:46:40;;;;;;;4.77;2.10;;;;;;;;;;6164402;28;20298;-68
2024/01/17 13:49:46;;;;;;;2.67;2.03;;;;;;;;;;6164083;28;20301;-68
2024/01/17 13:52:52;;;;;;;2.70;2.30;;;;;;;;;;6163605;28;20298;-68
2024/01/17 13:55:57;;;;;;;4.90;2.37;;;;;;;;;;6162442;28;20362;-68
2024/01/17 13:59:01;;;;;;;2.47;2.27;;;;;;;;;;6163742;28;20618;-68
2024/01/17 14:02:06;;;;;;;2.90;2.20;;;;;;;;;;6162445;28;20454;-69
2024/01/17 14:05:11;;;;;;;6.80;2.37;;;;;;;;;;6163450;28;20498;-69
2024/01/17 14:08:15;;;;;;;3.00;2.50;;;;;;;;;;6162587;28;20292;-69
2024/01/17 14:11:19;;;;;;;2.60;2.40;;;;;;;;;;6163347;28;20312;-69
2024/01/17 14:14:23;;;;;;;2.50;2.33;;;;;;;;;;6163027;28;20296;-70
2024/01/17 14:17:28;;;;;;;2.53;2.40;;;;;;;;;;6163889;28;20287;-69
2024/01/17 14:20:32;;;;;;;2.67;2.57;;;;;;;;;;6161055;28;20300;-69
2024/01/17 14:23:36;;;;;;;2.30;2.20;;;;;;;;;;6160026;28;21745;-69
2024/01/17 14:26:40;;;;;;;4.00;2.40;;;;;;;;;;6163408;28;20321;-69
2024/01/17 14:29:47;;;;;;;4.00;2.80;;;;;;;;;;6162899;28;20310;-69
2024/01/17 14:32:53;;;;;;;3.23;2.10;;;;;;;;;;6148079;28;20576;-69
2024/01/17 14:35:57;;;;;;;3.70;2.73;;;;;;;;;;6138993;29;20564;-69
2024/01/17 14:39:01;;;;;;;7.00;2.60;;;;;;;;;;6138935;29;20298;-68
2024/01/17 14:42:06;;;;;;;3.80;2.67;;;;;;;;;;6139230;29;20311;-69
2024/01/17 14:45:10;;;;;;;2.83;2.67;;;;;;;;;;6138487;29;20311;-69
2024/01/17 14:48:17;;;;;;;3.60;3.23;;;;;;;;;;6126577;29;20291;-69
2024/01/17 14:51:21;;;;;;;3.80;3.50;;;;;;;;;;6113512;29;20300;-69
2024/01/17 14:54:25;;;;;;;4.03;3.40;;;;;;;;;;6120902;29;20295;-69
2024/01/17 14:57:29;;;;;;;4.47;3.07;;;;;;;;;;6139062;29;20295;-69
2024/01/17 15:00:34;;;;;;;5.20;2.90;;;;;;;;;;6138298;29;20472;-69
2024/01/17 15:03:39;;;;;;;7.47;3.00;;;;;;;;;;6129206;29;20302;-69
2024/01/17 15:06:43;;;;;;;3.40;3.17;;;;;;;;;;6121449;29;20368;-69
2024/01/17 15:09:47;;;;;;;5.57;3.00;;;;;;;;;;6136235;29;20295;-69
2024/01/17 15:12:52;;;;;;;6.40;3.17;;;;;;;;;;6158066;28;20298;-70
2024/01/17 15:15:56;;;;;;;3.00;2.80;;;;;;;;;;6161151;28;20562;-68
2024/01/17 15:19:01;;;;;;;4.73;3.17;;;;;;;;;;6162815;28;20298;-70
2024/01/17 15:22:06;;;;;;;3.03;2.77;;;;;;;;;;6162321;28;20304;-70
2024/01/17 15:25:10;;;;;;;9.30;4.67;;;;;;;;;;6151654;28;20294;-69
2024/01/17 15:28:14;;;;;;;4.77;4.03;;;;;;;;;;6162265;28;20298;-70
2024/01/17 15:31:19;;;;;;;8.77;4.93;;;;;;;;;;6161787;28;20302;-70
2024/01/17 15:34:24;;;;;;;6.17;5.63;;;;;;;;;;6138190;28;20297;-70
2024/01/17 15:37:28;;;;;;;4.40;3.77;;;;;;;;;;6137106;28;20298;-70
2024/01/17 15:40:40;;;;;;;4.27;3.63;;;;;;;;;;6137971;28;20307;-69
2024/01/17 15:43:44;;;;;;;3.00;2.80;;;;;;;;;;6135657;28;20332;-68
2024/01/17 15:46:48;;;;;;;4.40;2.93;;;;;;;;;;6137883;28;20288;-68
2024/01/17 15:49:53;;;;;;;2.43;2.30;;;;;;;;;;6137276;28;20293;-70
2024/01/17 15:52:57;;;;;;;3.37;2.30;;;;;;;;;;6134497;28;20302;-69
2024/01/17 15:56:02;;;;;;;2.70;2.40;;;;;;;;;;6137520;28;20293;-69
2024/01/17 15:59:06;;;;;;;2.93;2.70;;;;;;;;;;6137520;28;20302;-69
2024/01/17 16:02:11;;;;;;;6.17;2.80;;;;;;;;;;6137871;28;20597;-70
2024/01/17 16:05:16;;;;;;;6.47;3.30;;;;;;;;;;6136913;28;20603;-69
2024/01/17 16:08:20;;;;;;;3.00;2.70;;;;;;;;;;6133168;28;20303;-69
2024/01/17 16:11:24;;;;;;;4.53;2.80;;;;;;;;;;6144646;28;20343;-69
2024/01/17 16:14:28;;;;;;;4.63;3.03;;;;;;;;;;6160882;28;20301;-68
2024/01/17 16:17:32;;;;;;;2.47;2.30;;;;;;;;;;6153912;28;20295;-69
2024/01/17 16:20:37;;;;;;;2.43;2.33;;;;;;;;;;6168759;28;20308;-70
2024/01/17 16:23:45;;;;;;;2.70;2.50;;;;;;;;;;6161071;28;20459;-69
2024/01/17 16:26:49;;;;;;;4.30;2.43;;;;;;;;;;6161168;28;20356;-69
2024/01/17 16:29:53;;;;;;;2.30;2.20;;;;;;;;;;6160792;28;20313;-70
2024/01/17 16:32:58;;;;;;;2.70;2.60;;;;;;;;;;6120991;29;20297;-70
2024/01/17 16:36:05;;;;;;;3.93;2.70;;;;;;;;;;6108783;29;20310;-70
2024/01/17 16:39:12;;;;;;;3.50;2.17;;;;;;;;;;6137000;29;20306;-70
2024/01/17 16:42:17;;;;;;;2.37;2.07;;;;;;;;;;6137108;29;20610;-69
2024/01/17 16:45:22;;;;;;;5.20;2.80;;;;;;;;;;6129744;29;20384;-69
2024/01/17 16:48:26;;;;;;;3.13;2.93;;;;;;;;;;6126505;29;20294;-70
2024/01/17 16:51:32;;;;;;;3.23;2.20;;;;;;;;;;6119606;29;20305;-70
2024/01/17 16:54:37;;;;;;;2.57;2.37;;;;;;;;;;6138992;29;20302;-70
2024/01/17 16:57:41;;;;;;;3.53;3.00;;;;;;;;;;6141845;29;20314;-69
2024/01/17 17:00:45;;;;;;;2.57;2.40;;;;;;;;;;6141168;29;20351;-69
2024/01/17 17:03:50;;;;;;;3.20;3.00;;;;;;;;;;6130685;29;20380;-69
2024/01/17 17:06:55;;;;;;;3.87;2.63;;;;;;;;;;6139218;29;20299;-70
2024/01/17 17:09:59;;;;;;;2.60;2.33;;;;;;;;;;6140542;29;20333;-70
2024/01/17 17:13:04;;;;;;;3.63;2.23;;;;;;;;;;6158344;28;20302;-69
2024/01/17 17:16:09;;;;;;;2.70;2.50;;;;;;;;;;6153165;28;20302;-69
2024/01/17 17:19:14;;;;;;;2.70;2.50;;;;;;;;;;6142628;28;20299;-69
2024/01/17 17:22:19;;;;;;;3.93;2.17;;;;;;;;;;6162158;28;20630;-69
2024/01/17 17:25:41;;;;;;;3.87;2.10;;;;;;;;;;6160946;28;20304;-70
2024/01/17 17:28:46;;;;;;;2.50;2.30;;;;;;;;;;6158303;28;20296;-70
2024/01/17 17:31:50;;;;;;;2.50;2.30;;;;;;;;;;6158511;28;20305;-69
2024/01/17 17:34:55;;;;;;;5.50;2.43;;;;;;;;;;6138390;29;20299;-71
2024/01/17 17:38:01;;;;;;;4.50;2.40;;;;;;;;;;6102612;29;20642;-69
2024/01/17 17:41:06;;;;;;;2.97;2.53;;;;;;;;;;6138719;29;20353;-70
2024/01/17 17:44:10;;;;;;;2.77;2.37;;;;;;;;;;6134634;29;20298;-70
2024/01/17 17:47:15;;;;;;;2.73;2.53;;;;;;;;;;6111502;29;20283;-69
2024/01/17 17:50:22;;;;;;;4.57;2.73;;;;;;;;;;6129077;29;20299;-69
2024/01/17 17:53:28;;;;;;;5.00;2.80;;;;;;;;;;6132298;29;20305;-71
2024/01/17 17:56:32;;;;;;;4.83;2.70;;;;;;;;;;6139386;29;20484;-70
2024/01/17 17:59:36;;;;;;;3.20;3.10;;;;;;;;;;6129380;29;20666;-68
2024/01/17 18:02:41;;;;;;;3.70;2.43;;;;;;;;;;6140635;29;20559;-68
2024/01/17 18:05:46;;;;;;;3.67;3.03;;;;;;;;;;6139347;29;20310;-69
2024/01/17 18:08:52;;;;;;;4.47;3.03;;;;;;;;;;6139317;29;20491;-70
2024/01/17 18:11:56;;;;;;;3.70;2.67;;;;;;;;;;6152983;28;20301;-68
2024/01/17 18:15:00;;;;;;;2.63;2.53;;;;;;;;;;6163664;28;20589;-70
2024/01/17 18:18:06;;;;;;;3.50;3.20;;;;;;;;;;6164605;28;20578;-71
2024/01/17 18:21:11;;;;;;;3.00;2.80;;;;;;;;;;6162839;28;20545;-69
2024/01/17 18:24:17;;;;;;;2.83;2.63;;;;;;;;;;6162591;28;20591;-69
2024/01/17 18:27:21;;;;;;;2.77;2.57;;;;;;;;;;6155039;28;20464;-69
2024/01/17 18:30:25;;;;;;;2.60;2.50;;;;;;;;;;6161122;28;20290;-67